createdAt,value
2024-04-21T00:01:52.053Z,72.82
2024-04-21T00:04:25.720Z,72.99
2024-04-21T00:06:56.315Z,72.95
2024-04-21T00:09:27.624Z,72.85
2024-04-21T00:11:58.354Z,72.82
2024-04-21T00:14:29.803Z,72.89
2024-04-21T00:17:00.310Z,72.98
2024-04-21T00:19:31.888Z,73.11
2024-04-21T00:22:02.220Z,73.31
2024-04-21T00:24:33.654Z,73.01
2024-04-21T00:27:04.100Z,73.26
2024-04-21T00:29:35.752Z,73.00
2024-04-21T00:32:06.169Z,72.79
2024-04-21T00:34:37.750Z,72.92
2024-04-21T00:37:07.858Z,72.88
2024-04-21T00:39:40.034Z,73.07
2024-04-21T00:42:10.321Z,73.15
2024-04-21T00:44:41.884Z,73.21
2024-04-21T00:47:11.945Z,73.31
2024-04-21T00:49:43.977Z,73.01
2024-04-21T00:52:14.282Z,73.10
2024-04-21T00:54:45.855Z,73.17
2024-04-21T00:57:15.871Z,73.10
2024-04-21T00:59:47.627Z,73.14
2024-04-21T01:02:17.864Z,73.17
2024-04-21T01:04:49.850Z,73.28
2024-04-21T01:07:20.347Z,73.20
2024-04-21T01:09:51.997Z,72.95
2024-04-21T01:12:22.307Z,72.92
2024-04-21T01:14:53.881Z,73.17
2024-04-21T01:17:24.130Z,73.24
2024-04-21T01:19:55.851Z,73.09
2024-04-21T01:22:26.187Z,73.26
2024-04-21T01:24:57.879Z,72.98
2024-04-21T01:27:28.149Z,72.83
2024-04-21T01:29:59.702Z,72.94
2024-04-21T01:32:30.303Z,72.90
2024-04-21T01:35:02.004Z,72.78
2024-04-21T01:37:32.409Z,72.80
2024-04-21T01:40:04.623Z,72.98
2024-04-21T01:42:34.816Z,72.77
2024-04-21T01:45:06.559Z,72.76
2024-04-21T01:47:36.833Z,72.78
2024-04-21T01:50:08.600Z,72.92
2024-04-21T01:52:38.968Z,73.02
2024-04-21T01:55:10.561Z,72.86
2024-04-21T01:57:40.850Z,73.05
2024-04-21T02:00:12.187Z,73.03
2024-04-21T02:02:47.780Z,72.82
2024-04-21T02:05:18.206Z,72.79
2024-04-21T02:07:51.762Z,72.99
2024-04-21T02:10:22.545Z,72.95
2024-04-21T02:12:53.209Z,72.87
2024-04-21T02:15:23.762Z,73.01
2024-04-21T02:17:55.196Z,73.26
2024-04-21T02:20:25.533Z,73.33
2024-04-21T02:22:56.986Z,73.44
2024-04-21T02:25:27.805Z,73.41
2024-04-21T02:27:59.299Z,73.32
2024-04-21T02:30:29.796Z,73.46
2024-04-21T02:33:03.267Z,73.39
2024-04-21T02:35:33.631Z,73.61
2024-04-21T02:38:05.192Z,73.50
2024-04-21T02:40:35.767Z,73.34
2024-04-21T02:43:07.897Z,73.44
2024-04-21T02:45:38.406Z,73.60
2024-04-21T02:48:09.959Z,73.38
2024-04-21T02:50:40.791Z,73.35
2024-04-21T02:53:12.446Z,73.19
2024-04-21T02:55:43.814Z,73.06
2024-04-21T02:58:15.762Z,73.28
2024-04-21T03:00:46.168Z,73.06
2024-04-21T03:03:17.960Z,73.03
2024-04-21T03:05:54.839Z,73.09
2024-04-21T03:08:26.595Z,73.18
2024-04-21T03:10:56.815Z,73.33
2024-04-21T03:13:28.834Z,73.22
2024-04-21T03:15:59.120Z,73.01
2024-04-21T03:18:30.754Z,72.86
2024-04-21T03:21:01.506Z,73.16
2024-04-21T03:23:33.246Z,73.30
2024-04-21T03:26:03.657Z,73.22
2024-04-21T03:28:35.115Z,73.27
2024-04-21T03:31:05.461Z,73.15
2024-04-21T03:33:37.016Z,72.96
2024-04-21T03:36:10.504Z,73.17
2024-04-21T03:38:42.622Z,73.00
2024-04-21T03:41:12.775Z,73.15
2024-04-21T03:43:45.703Z,73.09
2024-04-21T03:46:15.820Z,72.96
2024-04-21T03:48:48.044Z,72.77
2024-04-21T03:51:18.165Z,73.16
2024-04-21T03:53:49.713Z,73.11
2024-04-21T03:56:19.834Z,72.98
2024-04-21T03:58:51.494Z,73.06
2024-04-21T04:01:21.999Z,72.84
2024-04-21T04:03:53.698Z,72.76
2024-04-21T04:06:25.407Z,72.49
2024-04-21T04:08:59.758Z,72.37
2024-04-21T04:11:32.469Z,72.19
2024-04-21T04:14:02.655Z,72.21
2024-04-21T04:16:34.329Z,72.23
2024-04-21T04:19:04.655Z,72.14
2024-04-21T04:21:36.187Z,72.06
2024-04-21T04:24:06.623Z,72.19
2024-04-21T04:26:38.378Z,71.98
2024-04-21T04:29:09.006Z,72.02
2024-04-21T04:31:40.973Z,71.85
2024-04-21T04:34:11.095Z,71.40
2024-04-21T04:36:42.533Z,71.27
2024-04-21T04:39:12.775Z,71.15
2024-04-21T04:41:44.416Z,71.00
2024-04-21T04:44:14.637Z,71.07
2024-04-21T04:46:46.086Z,70.86
2024-04-21T04:49:16.426Z,70.65
2024-04-21T04:51:47.988Z,70.34
2024-04-21T04:54:18.290Z,69.87
2024-04-21T04:56:49.642Z,69.79
2024-04-21T04:59:19.964Z,69.52
2024-04-21T05:01:51.765Z,68.99
2024-04-21T05:04:22.366Z,68.52
2024-04-21T05:06:54.155Z,67.99
2024-04-21T05:09:24.737Z,67.11
2024-04-21T05:11:56.302Z,66.78
2024-04-21T05:14:27.126Z,66.80
2024-04-21T05:16:58.883Z,66.61
2024-04-21T05:19:29.204Z,66.23
2024-04-21T05:22:01.410Z,65.93
2024-04-21T05:24:32.009Z,65.59
2024-04-21T05:27:04.291Z,65.56
2024-04-21T05:29:34.317Z,65.63
2024-04-21T05:32:06.493Z,64.67
2024-04-21T05:34:38.019Z,64.25
2024-04-21T05:37:09.406Z,63.82
2024-04-21T05:39:39.683Z,63.43
2024-04-21T05:42:11.448Z,62.88
2024-04-21T05:44:41.472Z,63.01
2024-04-21T05:47:12.989Z,63.16
2024-04-21T05:49:43.334Z,61.78
2024-04-21T05:52:16.133Z,61.50
2024-04-21T05:54:46.445Z,61.37
2024-04-21T05:57:18.100Z,62.04
2024-04-21T05:59:48.321Z,61.46
2024-04-21T06:02:20.087Z,61.06
2024-04-21T06:04:50.555Z,60.82
2024-04-21T06:07:22.660Z,60.65
2024-04-21T06:09:55.771Z,59.72
2024-04-21T06:12:27.425Z,59.58
2024-04-21T06:14:57.535Z,59.20
2024-04-21T06:17:29.228Z,59.03
2024-04-21T06:19:59.619Z,58.93
2024-04-21T06:22:31.168Z,58.52
2024-04-21T06:25:01.641Z,57.22
2024-04-21T06:27:33.771Z,56.54
2024-04-21T06:30:04.194Z,56.81
2024-04-21T06:32:35.840Z,55.39
2024-04-21T06:35:07.760Z,54.88
2024-04-21T06:37:40.897Z,54.22
2024-04-21T06:40:12.778Z,54.02
2024-04-21T06:42:46.270Z,53.29
2024-04-21T06:45:16.887Z,52.13
2024-04-21T06:47:49.175Z,51.42
2024-04-21T06:50:19.489Z,49.93
2024-04-21T06:52:51.040Z,48.98
2024-04-21T06:55:21.557Z,49.13
2024-04-21T06:57:53.469Z,48.83
2024-04-21T07:00:23.948Z,48.31
2024-04-21T07:02:55.329Z,47.54
2024-04-21T07:05:25.934Z,47.88
2024-04-21T07:07:57.178Z,47.93
2024-04-21T07:10:28.065Z,48.43
2024-04-21T07:12:59.524Z,48.16
2024-04-21T07:15:30.110Z,46.40
2024-04-21T07:18:01.708Z,45.71
2024-04-21T07:20:32.091Z,45.79
2024-04-21T07:23:03.540Z,45.78
2024-04-21T07:25:33.997Z,46.33
2024-04-21T07:28:05.753Z,45.94
2024-04-21T07:30:36.294Z,44.71
2024-04-21T07:33:07.634Z,44.92
2024-04-21T07:35:38.125Z,44.58
2024-04-21T07:38:09.462Z,43.58
2024-04-21T07:40:39.892Z,42.52
2024-04-21T07:43:13.373Z,42.26
2024-04-21T07:45:46.381Z,41.94
2024-04-21T07:48:18.790Z,40.64
2024-04-21T07:50:49.206Z,39.30
2024-04-21T07:53:20.734Z,40.03
2024-04-21T07:55:51.067Z,40.50
2024-04-21T07:58:22.577Z,40.89
2024-04-21T08:00:52.876Z,41.47
2024-04-21T08:03:24.401Z,41.64
2024-04-21T08:05:55.003Z,42.36
2024-04-21T08:08:26.770Z,42.41
2024-04-21T08:11:04.548Z,41.65
2024-04-21T08:13:36.949Z,41.39
2024-04-21T08:16:07.828Z,41.52
2024-04-21T08:18:39.456Z,40.71
2024-04-21T08:21:10.425Z,40.60
2024-04-21T08:23:42.028Z,40.79
2024-04-21T08:26:12.306Z,40.74
2024-04-21T08:28:44.119Z,40.40
2024-04-21T08:31:14.234Z,41.55
2024-04-21T08:33:45.926Z,42.72
2024-04-21T08:36:16.099Z,42.67
2024-04-21T08:38:47.650Z,43.35
2024-04-21T08:41:19.762Z,43.85
2024-04-21T08:43:51.790Z,44.18
2024-04-21T08:46:21.867Z,44.47
2024-04-21T08:48:53.836Z,45.31
2024-04-21T08:51:24.085Z,45.38
2024-04-21T08:53:55.813Z,46.21
2024-04-21T08:56:25.932Z,45.70
2024-04-21T08:58:57.723Z,45.79
2024-04-21T09:01:28.049Z,45.53
2024-04-21T09:04:00.038Z,45.36
2024-04-21T09:06:30.220Z,44.94
2024-04-21T09:09:02.119Z,44.37
2024-04-21T09:11:32.397Z,44.42
2024-04-21T09:14:04.317Z,43.84
2024-04-21T09:16:34.530Z,43.85
2024-04-21T09:19:06.165Z,43.83
2024-04-21T09:21:36.489Z,44.56
2024-04-21T09:24:08.435Z,44.10
2024-04-21T09:26:38.593Z,44.68
2024-04-21T09:29:10.429Z,44.79
2024-04-21T09:31:40.536Z,44.33
2024-04-21T09:34:12.939Z,45.45
2024-04-21T09:36:43.248Z,45.27
2024-04-21T09:39:14.996Z,45.50
2024-04-21T09:41:51.457Z,45.78
2024-04-21T09:44:22.910Z,45.25
2024-04-21T09:46:53.341Z,45.30
2024-04-21T09:49:25.412Z,45.30
2024-04-21T09:51:56.375Z,45.76
2024-04-21T09:54:27.997Z,46.02
2024-04-21T09:57:01.237Z,46.63
2024-04-21T09:59:33.260Z,46.63
2024-04-21T10:02:03.581Z,46.20
2024-04-21T10:04:35.299Z,47.30
2024-04-21T10:07:06.021Z,47.72
2024-04-21T10:09:37.731Z,47.33
2024-04-21T10:12:08.356Z,47.03
2024-04-21T10:14:39.908Z,46.34
2024-04-21T10:17:10.341Z,45.73
2024-04-21T10:19:42.197Z,45.46
2024-04-21T10:22:12.602Z,45.38
2024-04-21T10:24:44.407Z,44.42
2024-04-21T10:27:21.739Z,43.93
2024-04-21T10:29:53.021Z,43.80
2024-04-21T10:32:26.978Z,43.66
2024-04-21T10:34:58.591Z,44.22
2024-04-21T10:37:29.037Z,44.46
2024-04-21T10:40:01.224Z,43.74
2024-04-21T10:42:35.008Z,44.68
2024-04-21T10:45:07.157Z,45.14
2024-04-21T10:47:37.349Z,45.68
2024-04-21T10:50:09.225Z,46.39
2024-04-21T10:52:39.443Z,46.92
2024-04-21T10:55:10.905Z,47.44
2024-04-21T10:57:41.248Z,48.42
2024-04-21T11:00:13.193Z,48.42
2024-04-21T11:02:43.538Z,49.12
2024-04-21T11:05:15.996Z,49.46
2024-04-21T11:07:48.512Z,49.90
2024-04-21T11:10:21.631Z,50.14
2024-04-21T11:12:53.146Z,50.95
2024-04-21T11:15:24.552Z,51.25
2024-04-21T11:17:58.716Z,51.51
2024-04-21T11:20:30.527Z,51.71
2024-04-21T11:23:00.744Z,52.11
2024-04-21T11:25:32.282Z,51.74
2024-04-21T11:28:09.373Z,51.78
2024-04-21T11:30:41.401Z,51.60
2024-04-21T11:33:12.226Z,52.51
2024-04-21T11:35:43.731Z,52.30
2024-04-21T11:38:14.365Z,51.71
2024-04-21T11:40:46.017Z,51.83
2024-04-21T11:43:17.769Z,51.90
2024-04-21T11:45:50.248Z,51.71
2024-04-21T11:48:20.812Z,51.71
2024-04-21T11:50:52.547Z,51.72
2024-04-21T11:53:23.070Z,51.13
2024-04-21T11:55:54.625Z,50.77
2024-04-21T11:58:25.186Z,50.75
2024-04-21T12:00:57.168Z,50.46
2024-04-21T12:03:27.563Z,50.34
2024-04-21T12:05:59.406Z,50.04
2024-04-21T12:08:29.630Z,49.90
2024-04-21T12:11:01.326Z,50.21
2024-04-21T12:13:31.764Z,50.17
2024-04-21T12:16:04.004Z,50.79
2024-04-21T12:18:34.630Z,50.95
2024-04-21T12:21:06.263Z,50.64
2024-04-21T12:23:36.493Z,50.64
2024-04-21T12:26:08.646Z,50.51
2024-04-21T12:28:38.873Z,50.61
2024-04-21T12:31:10.335Z,50.78
2024-04-21T12:33:40.848Z,50.52
2024-04-21T12:36:12.404Z,50.63
2024-04-21T12:38:42.622Z,51.17
2024-04-21T12:41:14.181Z,51.33
2024-04-21T12:43:44.404Z,51.12
2024-04-21T12:46:16.052Z,51.42
2024-04-21T12:48:46.501Z,51.64
2024-04-21T12:51:17.930Z,51.36
2024-04-21T12:53:48.480Z,51.33
2024-04-21T12:56:19.917Z,52.59
2024-04-21T12:58:50.249Z,53.97
2024-04-21T13:01:21.811Z,54.25
2024-04-21T13:03:52.439Z,54.72
2024-04-21T13:06:24.002Z,54.88
2024-04-21T13:08:54.711Z,54.96
2024-04-21T13:11:26.365Z,55.38
2024-04-21T13:13:56.797Z,55.83
2024-04-21T13:16:28.256Z,56.42
2024-04-21T13:18:59.543Z,55.71
2024-04-21T13:21:30.938Z,54.56
2024-04-21T13:24:01.473Z,53.89
2024-04-21T13:26:32.843Z,54.29
2024-04-21T13:29:03.346Z,55.03
2024-04-21T13:31:34.856Z,55.19
2024-04-21T13:34:05.294Z,55.34
2024-04-21T13:36:40.345Z,55.19
2024-04-21T13:39:13.238Z,55.04
2024-04-21T13:41:43.359Z,55.39
2024-04-21T13:44:14.813Z,55.57
2024-04-21T13:46:44.938Z,56.10
2024-04-21T13:49:16.407Z,56.65
2024-04-21T13:51:46.704Z,55.84
2024-04-21T13:54:18.456Z,55.58
2024-04-21T13:56:48.785Z,55.66
2024-04-21T13:59:20.449Z,55.12
2024-04-21T14:01:50.839Z,54.91
2024-04-21T14:04:23.895Z,54.27
2024-04-21T14:06:54.376Z,53.70
2024-04-21T14:09:26.448Z,53.59
2024-04-21T14:11:57.080Z,53.85
2024-04-21T14:14:28.938Z,54.72
2024-04-21T14:16:59.485Z,54.81
2024-04-21T14:19:31.179Z,55.22
2024-04-21T14:22:01.695Z,56.20
2024-04-21T14:24:33.205Z,56.18
2024-04-21T14:27:03.672Z,56.13
2024-04-21T14:29:37.029Z,55.68
2024-04-21T14:32:11.555Z,55.63
2024-04-21T14:34:42.229Z,55.38
2024-04-21T14:37:13.756Z,55.30
2024-04-21T14:39:43.845Z,55.08
2024-04-21T14:42:20.883Z,54.80
2024-04-21T14:45:02.268Z,54.78
2024-04-21T14:47:34.694Z,54.40
2024-04-21T14:50:05.256Z,54.14
2024-04-21T14:52:39.781Z,54.74
2024-04-21T14:55:12.675Z,53.57
2024-04-21T14:57:46.129Z,53.40
2024-04-21T15:00:19.366Z,54.57
2024-04-21T15:02:49.580Z,54.40
2024-04-21T15:05:21.203Z,54.78
2024-04-21T15:07:51.316Z,55.35
2024-04-21T15:10:23.541Z,55.46
2024-04-21T15:12:53.915Z,55.58
2024-04-21T15:15:29.019Z,55.36
2024-04-21T15:18:01.886Z,55.85
2024-04-21T15:20:32.256Z,56.11
2024-04-21T15:23:04.005Z,56.52
2024-04-21T15:25:34.788Z,56.15
2024-04-21T15:28:06.713Z,56.07
2024-04-21T15:30:38.172Z,55.93
2024-04-21T15:33:10.173Z,55.74
2024-04-21T15:35:41.855Z,56.33
2024-04-21T15:38:13.322Z,56.53
2024-04-21T15:40:43.943Z,56.75
2024-04-21T15:43:15.560Z,56.59
2024-04-21T15:45:45.841Z,57.24
2024-04-21T15:48:18.215Z,57.91
2024-04-21T15:50:49.015Z,57.94
2024-04-21T15:53:20.597Z,58.13
2024-04-21T15:55:50.927Z,58.67
2024-04-21T15:58:22.641Z,58.82
2024-04-21T16:00:53.884Z,59.42
2024-04-21T16:03:25.456Z,59.89
2024-04-21T16:05:56.218Z,59.96
2024-04-21T16:08:30.541Z,61.63
2024-04-21T16:11:05.296Z,61.72
2024-04-21T16:13:36.149Z,62.53
2024-04-21T16:16:07.937Z,62.51
2024-04-21T16:18:38.580Z,63.09
2024-04-21T16:21:10.551Z,63.77
2024-04-21T16:23:41.805Z,64.47
2024-04-21T16:26:13.251Z,64.74
2024-04-21T16:28:43.851Z,65.12
2024-04-21T16:31:15.689Z,65.32
2024-04-21T16:33:46.427Z,65.73
2024-04-21T16:36:18.031Z,66.43
2024-04-21T16:38:48.676Z,66.51
2024-04-21T16:41:20.510Z,66.07
2024-04-21T16:43:51.156Z,66.73
2024-04-21T16:46:23.331Z,67.06
2024-04-21T16:48:55.135Z,67.89
2024-04-21T16:51:27.044Z,68.07
2024-04-21T16:53:57.568Z,68.47
2024-04-21T16:56:29.116Z,68.44
2024-04-21T16:58:59.861Z,68.28
2024-04-21T17:01:32.054Z,68.74
2024-04-21T17:04:02.771Z,68.53
2024-04-21T17:06:34.830Z,69.08
2024-04-21T17:09:05.348Z,68.55
2024-04-21T17:11:37.102Z,68.75
2024-04-21T17:14:07.330Z,68.34
2024-04-21T17:16:39.031Z,69.14
2024-04-21T17:19:09.648Z,69.42
2024-04-21T17:21:41.365Z,69.79
2024-04-21T17:24:11.698Z,69.51
2024-04-21T17:26:43.568Z,69.82
2024-04-21T17:29:13.782Z,70.19
2024-04-21T17:31:45.650Z,70.31
2024-04-21T17:34:17.772Z,70.26
2024-04-21T17:36:51.100Z,69.63
2024-04-21T17:39:21.314Z,69.85
2024-04-21T17:41:52.791Z,69.84
2024-04-21T17:44:23.210Z,70.41
2024-04-21T17:46:54.795Z,70.20
2024-04-21T17:49:25.185Z,70.34
2024-04-21T17:51:56.961Z,70.57
2024-04-21T17:54:27.571Z,70.38
2024-04-21T17:56:59.014Z,70.23
2024-04-21T17:59:29.131Z,70.16
2024-04-21T18:02:00.893Z,70.30
2024-04-21T18:04:31.267Z,70.22
2024-04-21T18:07:03.313Z,70.27
2024-04-21T18:09:33.604Z,70.11
2024-04-21T18:12:06.078Z,70.07
2024-04-21T18:14:36.299Z,70.38
2024-04-21T18:17:13.992Z,70.46
2024-04-21T18:19:53.955Z,70.50
2024-04-21T18:22:24.339Z,70.58
2024-04-21T18:24:56.132Z,70.75
2024-04-21T18:27:26.145Z,70.86
2024-04-21T18:29:58.665Z,70.44
2024-04-21T18:32:28.989Z,70.88
2024-04-21T18:35:00.730Z,70.72
2024-04-21T18:37:31.283Z,71.18
2024-04-21T18:40:06.592Z,70.87
2024-04-21T18:42:39.160Z,71.03
2024-04-21T18:45:11.106Z,71.05
2024-04-21T18:47:42.506Z,71.16
2024-04-21T18:50:12.898Z,71.11
2024-04-21T18:52:44.932Z,71.42
2024-04-21T18:55:15.526Z,71.39
2024-04-21T18:57:46.969Z,71.33
2024-04-21T19:00:17.785Z,71.44
2024-04-21T19:02:50.583Z,71.49
2024-04-21T19:05:21.197Z,71.36
2024-04-21T19:07:52.540Z,71.44
2024-04-21T19:10:23.171Z,71.12
2024-04-21T19:12:54.820Z,70.98
2024-04-21T19:15:25.557Z,71.03
2024-04-21T19:17:57.288Z,71.11
2024-04-21T19:20:28.250Z,70.97
2024-04-21T19:23:00.416Z,71.00
2024-04-21T19:25:30.758Z,71.27
2024-04-21T19:28:02.356Z,71.21
2024-04-21T19:30:32.716Z,71.10
2024-04-21T19:33:05.673Z,71.10
2024-04-21T19:35:36.031Z,70.93
2024-04-21T19:38:07.687Z,70.76
2024-04-21T19:40:38.057Z,70.86
2024-04-21T19:43:09.795Z,70.82
2024-04-21T19:45:40.398Z,70.59
2024-04-21T19:48:13.134Z,70.33
2024-04-21T19:50:43.399Z,70.35
2024-04-21T19:53:15.360Z,70.35
2024-04-21T19:55:45.925Z,70.27
2024-04-21T19:58:17.360Z,70.41
2024-04-21T20:00:47.731Z,70.49
2024-04-21T20:03:19.425Z,70.30
2024-04-21T20:05:49.855Z,70.27
2024-04-21T20:08:21.511Z,70.08
2024-04-21T20:10:51.976Z,70.42
2024-04-21T20:13:23.987Z,70.45
2024-04-21T20:16:13.761Z,70.71
2024-04-21T20:18:51.538Z,70.66
2024-04-21T20:21:23.347Z,70.66
2024-04-21T20:23:54.068Z,70.56
2024-04-21T20:26:25.627Z,70.38
2024-04-21T20:28:55.947Z,70.52
2024-04-21T20:31:27.922Z,70.48
2024-04-21T20:33:58.254Z,70.30
2024-04-21T20:36:29.694Z,70.24
2024-04-21T20:39:00.171Z,70.45
2024-04-21T20:41:31.975Z,70.26
2024-04-21T20:44:02.599Z,70.30
2024-04-21T20:46:34.310Z,70.30
2024-04-21T20:49:06.476Z,70.38
2024-04-21T20:51:37.985Z,70.28
2024-04-21T20:54:08.416Z,70.35
2024-04-21T20:56:40.059Z,70.56
2024-04-21T20:59:10.355Z,70.44
2024-04-21T21:01:41.895Z,70.43
2024-04-21T21:04:14.109Z,70.52
2024-04-21T21:06:45.762Z,70.72
2024-04-21T21:09:15.890Z,70.42
2024-04-21T21:11:47.535Z,70.53
2024-04-21T21:14:17.859Z,70.51
2024-04-21T21:16:49.320Z,70.42
2024-04-21T21:19:19.487Z,70.55
2024-04-21T21:21:51.081Z,70.67
2024-04-21T21:24:21.306Z,70.54
2024-04-21T21:26:53.529Z,70.70
2024-04-21T21:29:23.704Z,70.66
2024-04-21T21:31:55.790Z,70.66
2024-04-21T21:34:26.427Z,70.51
2024-04-21T21:36:58.258Z,70.76
2024-04-21T21:39:28.366Z,70.73
2024-04-21T21:42:01.132Z,70.64
2024-04-21T21:44:31.291Z,70.69
2024-04-21T21:47:02.929Z,70.86
2024-04-21T21:49:32.993Z,70.56
2024-04-21T21:52:05.146Z,70.31
2024-04-21T21:54:36.101Z,69.77
2024-04-21T21:57:07.600Z,69.00
2024-04-21T21:59:37.623Z,68.38
2024-04-21T22:02:09.476Z,68.02
2024-04-21T22:04:39.893Z,67.78
2024-04-21T22:07:11.487Z,68.00
2024-04-21T22:09:41.886Z,67.80
2024-04-21T22:12:13.449Z,67.79
2024-04-21T22:14:43.764Z,68.00
2024-04-21T22:17:15.417Z,68.04
2024-04-21T22:19:47.226Z,67.97
2024-04-21T22:22:18.849Z,68.03
2024-04-21T22:24:49.046Z,68.38
2024-04-21T22:27:20.509Z,68.39
2024-04-21T22:29:51.339Z,68.35
2024-04-21T22:32:23.082Z,67.86
2024-04-21T22:34:54.371Z,67.78
2024-04-21T22:37:25.815Z,67.61
2024-04-21T22:39:56.735Z,67.51
2024-04-21T22:42:28.347Z,67.52
2024-04-21T22:44:58.620Z,67.59
2024-04-21T22:47:30.649Z,67.52
2024-04-21T22:50:01.007Z,67.75
2024-04-21T22:52:32.589Z,67.71
2024-04-21T22:55:03.109Z,67.91
2024-04-21T22:57:34.757Z,67.73
2024-04-21T23:00:05.358Z,67.93
2024-04-21T23:02:36.957Z,67.88
2024-04-21T23:05:07.992Z,67.92
2024-04-21T23:07:39.598Z,68.15
2024-04-21T23:10:10.294Z,68.50
2024-04-21T23:12:41.821Z,68.65
2024-04-21T23:15:12.128Z,68.80
2024-04-21T23:17:43.492Z,68.45
2024-04-21T23:20:14.330Z,68.29
2024-04-21T23:22:45.547Z,68.55
2024-04-21T23:25:16.220Z,68.33
2024-04-21T23:27:47.536Z,68.62
2024-04-21T23:30:18.167Z,68.66
2024-04-21T23:32:49.555Z,69.12
2024-04-21T23:35:20.050Z,69.46
2024-04-21T23:37:51.392Z,70.12
2024-04-21T23:40:21.742Z,70.41
2024-04-21T23:42:53.168Z,70.68
2024-04-21T23:45:23.514Z,70.67
2024-04-21T23:47:56.562Z,71.06
2024-04-21T23:50:26.900Z,71.12
2024-04-21T23:52:58.391Z,71.02
2024-04-21T23:55:28.810Z,70.73
2024-04-21T23:58:00.150Z,71.10
